sensor_id;sensor_type;location;lat;lon;timestamp;P1;durP1;ratioP1;P2;durP2;ratioP2
53881;SDS011;39794;55.782;37.452;2022-11-20T00:01:27;19.02;;;9.80;;
53881;SDS011;39794;55.782;37.452;2022-11-20T00:03:56;13.13;;;7.72;;
53881;SDS011;39794;55.782;37.452;2022-11-20T00:06:26;19.23;;;9.95;;
53881;SDS011;39794;55.782;37.452;2022-11-20T00:08:55;15.25;;;8.27;;
53881;SDS011;39794;55.782;37.452;2022-11-20T00:11:25;15.38;;;8.43;;
53881;SDS011;39794;55.782;37.452;2022-11-20T00:13:56;9.70;;;6.60;;
53881;SDS011;39794;55.782;37.452;2022-11-20T00:16:28;14.38;;;7.93;;
53881;SDS011;39794;55.782;37.452;2022-11-20T00:18:58;14.52;;;8.43;;
53881;SDS011;39794;55.782;37.452;2022-11-20T00:21:27;15.75;;;8.73;;
53881;SDS011;39794;55.782;37.452;2022-11-20T00:23:56;11.18;;;6.45;;
53881;SDS011;39794;55.782;37.452;2022-11-20T00:26:25;13.77;;;7.00;;
53881;SDS011;39794;55.782;37.452;2022-11-20T00:28:54;17.63;;;8.95;;
53881;SDS011;39794;55.782;37.452;2022-11-20T00:31:25;17.13;;;8.70;;
53881;SDS011;39794;55.782;37.452;2022-11-20T00:33:54;16.10;;;9.52;;
53881;SDS011;39794;55.782;37.452;2022-11-20T00:36:23;16.55;;;9.35;;
53881;SDS011;39794;55.782;37.452;2022-11-20T00:38:53;10.98;;;5.85;;
53881;SDS011;39794;55.782;37.452;2022-11-20T00:41:22;14.13;;;7.20;;
53881;SDS011;39794;55.782;37.452;2022-11-20T00:43:51;15.32;;;7.97;;
53881;SDS011;39794;55.782;37.452;2022-11-20T00:46:21;14.38;;;8.30;;
53881;SDS011;39794;55.782;37.452;2022-11-20T00:48:51;13.50;;;7.03;;
53881;SDS011;39794;55.782;37.452;2022-11-20T00:51:20;14.48;;;9.13;;
53881;SDS011;39794;55.782;37.452;2022-11-20T00:53:49;12.65;;;6.63;;
53881;SDS011;39794;55.782;37.452;2022-11-20T00:56:19;15.23;;;8.70;;
53881;SDS011;39794;55.782;37.452;2022-11-20T00:58:47;16.73;;;9.38;;
53881;SDS011;39794;55.782;37.452;2022-11-20T01:01:17;12.98;;;6.82;;
53881;SDS011;39794;55.782;37.452;2022-11-20T01:03:47;15.85;;;8.55;;
53881;SDS011;39794;55.782;37.452;2022-11-20T01:06:18;12.40;;;7.75;;
53881;SDS011;39794;55.782;37.452;2022-11-20T01:08:48;14.50;;;6.93;;
53881;SDS011;39794;55.782;37.452;2022-11-20T01:11:18;10.68;;;6.55;;
53881;SDS011;39794;55.782;37.452;2022-11-20T01:13:48;12.70;;;7.75;;
53881;SDS011;39794;55.782;37.452;2022-11-20T01:16:18;14.23;;;7.93;;
53881;SDS011;39794;55.782;37.452;2022-11-20T01:18:48;12.73;;;7.82;;
53881;SDS011;39794;55.782;37.452;2022-11-20T01:21:19;9.02;;;6.13;;
53881;SDS011;39794;55.782;37.452;2022-11-20T01:23:48;11.73;;;7.30;;
53881;SDS011;39794;55.782;37.452;2022-11-20T01:26:19;8.82;;;5.65;;
53881;SDS011;39794;55.782;37.452;2022-11-20T01:28:48;11.55;;;6.95;;
53881;SDS011;39794;55.782;37.452;2022-11-20T01:31:18;13.80;;;7.50;;
53881;SDS011;39794;55.782;37.452;2022-11-20T01:33:49;12.23;;;7.25;;
53881;SDS011;39794;55.782;37.452;2022-11-20T01:36:21;7.57;;;5.32;;
53881;SDS011;39794;55.782;37.452;2022-11-20T01:38:50;9.35;;;4.70;;
53881;SDS011;39794;55.782;37.452;2022-11-20T01:41:21;7.65;;;5.45;;
53881;SDS011;39794;55.782;37.452;2022-11-20T01:44:09;10.27;;;6.63;;
53881;SDS011;39794;55.782;37.452;2022-11-20T01:46:42;13.30;;;7.57;;
53881;SDS011;39794;55.782;37.452;2022-11-20T01:49:18;12.40;;;6.55;;
53881;SDS011;39794;55.782;37.452;2022-11-20T01:51:50;10.90;;;6.35;;
53881;SDS011;39794;55.782;37.452;2022-11-20T01:54:23;13.93;;;7.07;;
53881;SDS011;39794;55.782;37.452;2022-11-20T01:56:52;12.57;;;7.20;;
53881;SDS011;39794;55.782;37.452;2022-11-20T01:59:23;12.15;;;6.03;;
53881;SDS011;39794;55.782;37.452;2022-11-20T02:01:52;10.75;;;6.18;;
53881;SDS011;39794;55.782;37.452;2022-11-20T02:04:21;12.75;;;7.13;;
53881;SDS011;39794;55.782;37.452;2022-11-20T02:06:53;11.75;;;6.68;;
53881;SDS011;39794;55.782;37.452;2022-11-20T02:09:25;13.15;;;7.53;;
53881;SDS011;39794;55.782;37.452;2022-11-20T02:11:53;10.98;;;6.50;;
53881;SDS011;39794;55.782;37.452;2022-11-20T02:14:22;10.13;;;5.47;;
53881;SDS011;39794;55.782;37.452;2022-11-20T02:16:50;15.73;;;7.75;;
53881;SDS011;39794;55.782;37.452;2022-11-20T02:19:22;12.27;;;7.93;;
53881;SDS011;39794;55.782;37.452;2022-11-20T02:21:55;12.00;;;7.13;;
53881;SDS011;39794;55.782;37.452;2022-11-20T02:26:56;10.32;;;5.20;;
53881;SDS011;39794;55.782;37.452;2022-11-20T02:29:27;13.75;;;7.60;;
53881;SDS011;39794;55.782;37.452;2022-11-20T02:32:00;10.57;;;7.00;;
53881;SDS011;39794;55.782;37.452;2022-11-20T02:34:29;15.05;;;7.60;;
53881;SDS011;39794;55.782;37.452;2022-11-20T02:36:57;7.90;;;5.22;;
53881;SDS011;39794;55.782;37.452;2022-11-20T02:39:28;10.15;;;4.57;;
53881;SDS011;39794;55.782;37.452;2022-11-20T02:41:56;12.63;;;6.20;;
53881;SDS011;39794;55.782;37.452;2022-11-20T02:44:25;9.13;;;6.35;;
53881;SDS011;39794;55.782;37.452;2022-11-20T02:46:53;11.57;;;6.25;;
53881;SDS011;39794;55.782;37.452;2022-11-20T02:49:24;13.13;;;6.95;;
53881;SDS011;39794;55.782;37.452;2022-11-20T02:51:53;11.90;;;7.18;;
53881;SDS011;39794;55.782;37.452;2022-11-20T02:54:21;12.02;;;6.55;;
53881;SDS011;39794;55.782;37.452;2022-11-20T02:56:51;7.65;;;4.18;;
53881;SDS011;39794;55.782;37.452;2022-11-20T02:59:19;11.02;;;6.18;;
53881;SDS011;39794;55.782;37.452;2022-11-20T03:01:48;7.30;;;4.57;;
53881;SDS011;39794;55.782;37.452;2022-11-20T03:04:17;14.60;;;7.43;;
53881;SDS011;39794;55.782;37.452;2022-11-20T03:06:45;10.13;;;6.20;;
53881;SDS011;39794;55.782;37.452;2022-11-20T03:09:13;11.65;;;6.70;;
53881;SDS011;39794;55.782;37.452;2022-11-20T03:11:42;11.57;;;6.57;;
53881;SDS011;39794;55.782;37.452;2022-11-20T03:14:14;11.02;;;5.80;;
53881;SDS011;39794;55.782;37.452;2022-11-20T03:16:42;11.77;;;5.95;;
53881;SDS011;39794;55.782;37.452;2022-11-20T03:19:11;12.57;;;7.07;;
53881;SDS011;39794;55.782;37.452;2022-11-20T03:21:39;9.43;;;5.80;;
53881;SDS011;39794;55.782;37.452;2022-11-20T03:24:08;12.27;;;6.82;;
53881;SDS011;39794;55.782;37.452;2022-11-20T03:26:37;12.80;;;4.65;;
53881;SDS011;39794;55.782;37.452;2022-11-20T03:29:06;9.32;;;4.35;;
53881;SDS011;39794;55.782;37.452;2022-11-20T03:31:37;14.27;;;7.20;;
53881;SDS011;39794;55.782;37.452;2022-11-20T03:34:07;16.00;;;6.38;;
53881;SDS011;39794;55.782;37.452;2022-11-20T03:36:37;10.40;;;4.50;;
53881;SDS011;39794;55.782;37.452;2022-11-20T03:39:05;11.15;;;6.47;;
53881;SDS011;39794;55.782;37.452;2022-11-20T03:41:35;9.27;;;5.88;;
53881;SDS011;39794;55.782;37.452;2022-11-20T03:44:05;8.35;;;4.53;;
53881;SDS011;39794;55.782;37.452;2022-11-20T03:46:34;12.98;;;5.93;;
53881;SDS011;39794;55.782;37.452;2022-11-20T03:49:04;12.63;;;7.07;;
53881;SDS011;39794;55.782;37.452;2022-11-20T03:51:33;12.55;;;6.38;;
53881;SDS011;39794;55.782;37.452;2022-11-20T03:54:03;11.50;;;6.70;;
53881;SDS011;39794;55.782;37.452;2022-11-20T03:56:33;12.32;;;6.70;;
53881;SDS011;39794;55.782;37.452;2022-11-20T03:59:03;11.57;;;6.95;;
53881;SDS011;39794;55.782;37.452;2022-11-20T04:01:32;11.27;;;7.20;;
53881;SDS011;39794;55.782;37.452;2022-11-20T04:04:03;13.60;;;7.32;;
53881;SDS011;39794;55.782;37.452;2022-11-20T04:06:33;12.52;;;6.80;;
53881;SDS011;39794;55.782;37.452;2022-11-20T04:09:04;10.68;;;6.07;;
53881;SDS011;39794;55.782;37.452;2022-11-20T04:11:33;12.15;;;6.93;;
53881;SDS011;39794;55.782;37.452;2022-11-20T04:14:04;13.13;;;7.28;;
53881;SDS011;39794;55.782;37.452;2022-11-20T04:16:34;12.32;;;6.47;;
53881;SDS011;39794;55.782;37.452;2022-11-20T04:19:08;12.80;;;7.35;;
53881;SDS011;39794;55.782;37.452;2022-11-20T04:21:38;14.65;;;7.47;;
53881;SDS011;39794;55.782;37.452;2022-11-20T04:24:06;12.82;;;6.78;;
53881;SDS011;39794;55.782;37.452;2022-11-20T04:26:37;13.43;;;7.22;;
53881;SDS011;39794;55.782;37.452;2022-11-20T04:29:05;13.35;;;5.00;;
53881;SDS011;39794;55.782;37.452;2022-11-20T04:31:34;11.35;;;6.05;;
53881;SDS011;39794;55.782;37.452;2022-11-20T04:34:03;9.48;;;5.75;;
53881;SDS011;39794;55.782;37.452;2022-11-20T04:36:33;13.05;;;4.43;;
53881;SDS011;39794;55.782;37.452;2022-11-20T04:39:03;12.85;;;6.72;;
53881;SDS011;39794;55.782;37.452;2022-11-20T04:41:33;12.77;;;7.20;;
53881;SDS011;39794;55.782;37.452;2022-11-20T04:44:03;15.32;;;7.75;;
53881;SDS011;39794;55.782;37.452;2022-11-20T04:46:33;13.50;;;7.15;;
53881;SDS011;39794;55.782;37.452;2022-11-20T04:49:02;15.25;;;7.97;;
53881;SDS011;39794;55.782;37.452;2022-11-20T04:51:33;12.10;;;7.38;;
53881;SDS011;39794;55.782;37.452;2022-11-20T04:54:01;11.48;;;7.53;;
53881;SDS011;39794;55.782;37.452;2022-11-20T04:56:30;12.93;;;6.57;;
53881;SDS011;39794;55.782;37.452;2022-11-20T04:58:59;14.35;;;8.55;;
53881;SDS011;39794;55.782;37.452;2022-11-20T05:01:28;11.35;;;6.90;;
53881;SDS011;39794;55.782;37.452;2022-11-20T05:03:57;15.60;;;7.25;;
53881;SDS011;39794;55.782;37.452;2022-11-20T05:06:25;15.57;;;8.02;;
53881;SDS011;39794;55.782;37.452;2022-11-20T05:08:55;11.57;;;6.93;;
53881;SDS011;39794;55.782;37.452;2022-11-20T05:11:23;13.32;;;7.57;;
53881;SDS011;39794;55.782;37.452;2022-11-20T05:13:52;14.95;;;7.10;;
53881;SDS011;39794;55.782;37.452;2022-11-20T05:16:22;12.98;;;7.38;;
53881;SDS011;39794;55.782;37.452;2022-11-20T05:18:52;11.40;;;5.72;;
53881;SDS011;39794;55.782;37.452;2022-11-20T05:21:21;15.27;;;8.57;;
53881;SDS011;39794;55.782;37.452;2022-11-20T05:23:50;15.38;;;7.47;;
53881;SDS011;39794;55.782;37.452;2022-11-20T05:26:21;13.43;;;7.68;;
53881;SDS011;39794;55.782;37.452;2022-11-20T05:28:50;12.98;;;7.07;;
53881;SDS011;39794;55.782;37.452;2022-11-20T05:31:19;15.88;;;8.25;;
53881;SDS011;39794;55.782;37.452;2022-11-20T05:33:53;17.48;;;7.55;;
53881;SDS011;39794;55.782;37.452;2022-11-20T05:36:22;13.20;;;6.22;;
53881;SDS011;39794;55.782;37.452;2022-11-20T05:38:51;12.57;;;7.43;;
53881;SDS011;39794;55.782;37.452;2022-11-20T05:41:28;14.82;;;7.95;;
53881;SDS011;39794;55.782;37.452;2022-11-20T05:43:56;18.73;;;7.85;;
53881;SDS011;39794;55.782;37.452;2022-11-20T05:46:25;16.15;;;7.85;;
53881;SDS011;39794;55.782;37.452;2022-11-20T05:48:55;15.60;;;8.45;;
53881;SDS011;39794;55.782;37.452;2022-11-20T05:51:24;15.77;;;8.70;;
53881;SDS011;39794;55.782;37.452;2022-11-20T05:53:53;18.63;;;7.85;;
53881;SDS011;39794;55.782;37.452;2022-11-20T05:56:24;14.45;;;8.60;;
53881;SDS011;39794;55.782;37.452;2022-11-20T05:58:53;16.55;;;8.93;;
53881;SDS011;39794;55.782;37.452;2022-11-20T06:01:22;15.32;;;8.45;;
53881;SDS011;39794;55.782;37.452;2022-11-20T06:03:52;18.52;;;8.90;;
53881;SDS011;39794;55.782;37.452;2022-11-20T06:06:21;10.70;;;6.72;;
53881;SDS011;39794;55.782;37.452;2022-11-20T06:08:49;16.02;;;9.02;;
53881;SDS011;39794;55.782;37.452;2022-11-20T06:11:18;14.82;;;8.65;;
53881;SDS011;39794;55.782;37.452;2022-11-20T06:13:46;16.52;;;8.63;;
53881;SDS011;39794;55.782;37.452;2022-11-20T06:16:17;15.02;;;8.75;;
53881;SDS011;39794;55.782;37.452;2022-11-20T06:18:47;14.07;;;8.35;;
53881;SDS011;39794;55.782;37.452;2022-11-20T06:21:16;15.60;;;9.00;;
53881;SDS011;39794;55.782;37.452;2022-11-20T06:23:45;15.15;;;8.50;;
53881;SDS011;39794;55.782;37.452;2022-11-20T06:26:14;15.07;;;8.75;;
53881;SDS011;39794;55.782;37.452;2022-11-20T06:28:44;15.63;;;9.10;;
53881;SDS011;39794;55.782;37.452;2022-11-20T06:31:13;15.23;;;8.88;;
53881;SDS011;39794;55.782;37.452;2022-11-20T06:33:44;16.70;;;8.23;;
53881;SDS011;39794;55.782;37.452;2022-11-20T06:36:14;16.08;;;9.57;;
53881;SDS011;39794;55.782;37.452;2022-11-20T06:38:46;17.73;;;8.93;;
53881;SDS011;39794;55.782;37.452;2022-11-20T06:41:15;17.15;;;9.18;;
53881;SDS011;39794;55.782;37.452;2022-11-20T06:43:44;17.00;;;8.57;;
53881;SDS011;39794;55.782;37.452;2022-11-20T06:46:13;14.77;;;8.13;;
53881;SDS011;39794;55.782;37.452;2022-11-20T06:48:45;14.35;;;8.55;;
53881;SDS011;39794;55.782;37.452;2022-11-20T06:51:14;15.20;;;8.80;;
53881;SDS011;39794;55.782;37.452;2022-11-20T06:53:43;15.02;;;8.55;;
53881;SDS011;39794;55.782;37.452;2022-11-20T06:56:12;13.70;;;7.63;;
53881;SDS011;39794;55.782;37.452;2022-11-20T06:58:40;13.40;;;8.15;;
53881;SDS011;39794;55.782;37.452;2022-11-20T07:01:10;17.38;;;8.60;;
53881;SDS011;39794;55.782;37.452;2022-11-20T07:03:39;17.85;;;8.90;;
53881;SDS011;39794;55.782;37.452;2022-11-20T07:06:10;16.80;;;8.88;;
53881;SDS011;39794;55.782;37.452;2022-11-20T07:08:39;17.52;;;9.10;;
53881;SDS011;39794;55.782;37.452;2022-11-20T07:11:11;14.18;;;7.93;;
53881;SDS011;39794;55.782;37.452;2022-11-20T07:13:40;15.13;;;7.88;;
53881;SDS011;39794;55.782;37.452;2022-11-20T07:16:08;17.45;;;9.35;;
53881;SDS011;39794;55.782;37.452;2022-11-20T07:18:37;17.38;;;9.43;;
53881;SDS011;39794;55.782;37.452;2022-11-20T07:21:05;20.77;;;9.07;;
53881;SDS011;39794;55.782;37.452;2022-11-20T07:23:36;17.35;;;9.30;;
53881;SDS011;39794;55.782;37.452;2022-11-20T07:26:05;18.67;;;8.82;;
53881;SDS011;39794;55.782;37.452;2022-11-20T07:28:34;18.20;;;8.70;;
53881;SDS011;39794;55.782;37.452;2022-11-20T07:31:03;17.67;;;8.35;;
53881;SDS011;39794;55.782;37.452;2022-11-20T07:33:33;18.58;;;9.80;;
53881;SDS011;39794;55.782;37.452;2022-11-20T07:36:02;18.38;;;10.50;;
53881;SDS011;39794;55.782;37.452;2022-11-20T07:38:30;16.60;;;9.60;;
53881;SDS011;39794;55.782;37.452;2022-11-20T07:41:01;18.52;;;10.63;;
53881;SDS011;39794;55.782;37.452;2022-11-20T07:43:29;16.52;;;9.70;;
53881;SDS011;39794;55.782;37.452;2022-11-20T07:46:04;18.38;;;10.02;;
53881;SDS011;39794;55.782;37.452;2022-11-20T07:48:32;22.27;;;9.75;;
53881;SDS011;39794;55.782;37.452;2022-11-20T07:51:02;19.05;;;10.32;;
53881;SDS011;39794;55.782;37.452;2022-11-20T07:53:30;20.23;;;10.50;;
53881;SDS011;39794;55.782;37.452;2022-11-20T07:56:00;21.00;;;9.60;;
53881;SDS011;39794;55.782;37.452;2022-11-20T07:58:29;23.80;;;11.43;;
53881;SDS011;39794;55.782;37.452;2022-11-20T08:01:02;18.50;;;10.82;;
53881;SDS011;39794;55.782;37.452;2022-11-20T08:03:31;20.48;;;10.63;;
53881;SDS011;39794;55.782;37.452;2022-11-20T08:05:59;20.80;;;11.07;;
53881;SDS011;39794;55.782;37.452;2022-11-20T08:08:28;21.73;;;10.88;;
53881;SDS011;39794;55.782;37.452;2022-11-20T08:11:01;19.27;;;10.30;;
53881;SDS011;39794;55.782;37.452;2022-11-20T08:13:47;21.10;;;10.95;;
53881;SDS011;39794;55.782;37.452;2022-11-20T08:16:33;24.17;;;11.98;;
53881;SDS011;39794;55.782;37.452;2022-11-20T08:19:01;24.90;;;11.57;;
53881;SDS011;39794;55.782;37.452;2022-11-20T08:21:29;25.95;;;12.85;;
53881;SDS011;39794;55.782;37.452;2022-11-20T08:24:04;28.05;;;12.00;;
53881;SDS011;39794;55.782;37.452;2022-11-20T08:26:34;22.42;;;11.80;;
53881;SDS011;39794;55.782;37.452;2022-11-20T08:29:04;23.25;;;11.45;;
53881;SDS011;39794;55.782;37.452;2022-11-20T08:31:32;24.10;;;11.52;;
53881;SDS011;39794;55.782;37.452;2022-11-20T08:34:01;21.63;;;11.52;;
53881;SDS011;39794;55.782;37.452;2022-11-20T08:36:35;24.20;;;12.90;;
53881;SDS011;39794;55.782;37.452;2022-11-20T08:39:03;36.42;;;13.90;;
53881;SDS011;39794;55.782;37.452;2022-11-20T08:41:32;26.55;;;13.48;;
53881;SDS011;39794;55.782;37.452;2022-11-20T08:44:02;26.33;;;14.00;;
53881;SDS011;39794;55.782;37.452;2022-11-20T08:46:33;26.98;;;13.77;;
53881;SDS011;39794;55.782;37.452;2022-11-20T08:49:06;22.80;;;11.27;;
53881;SDS011;39794;55.782;37.452;2022-11-20T08:51:35;27.05;;;13.70;;
53881;SDS011;39794;55.782;37.452;2022-11-20T08:54:04;34.67;;;13.60;;
53881;SDS011;39794;55.782;37.452;2022-11-20T08:56:33;29.73;;;13.25;;
53881;SDS011;39794;55.782;37.452;2022-11-20T08:59:04;29.98;;;13.77;;
53881;SDS011;39794;55.782;37.452;2022-11-20T09:01:53;26.77;;;13.35;;
53881;SDS011;39794;55.782;37.452;2022-11-20T09:04:22;30.55;;;14.70;;
53881;SDS011;39794;55.782;37.452;2022-11-20T09:06:50;27.10;;;13.55;;
53881;SDS011;39794;55.782;37.452;2022-11-20T09:09:18;28.02;;;13.20;;
53881;SDS011;39794;55.782;37.452;2022-11-20T09:11:48;28.17;;;12.95;;
53881;SDS011;39794;55.782;37.452;2022-11-20T09:14:19;27.30;;;13.15;;
53881;SDS011;39794;55.782;37.452;2022-11-20T09:16:48;31.60;;;15.38;;
53881;SDS011;39794;55.782;37.452;2022-11-20T09:19:16;28.60;;;13.88;;
53881;SDS011;39794;55.782;37.452;2022-11-20T09:22:01;28.73;;;13.50;;
53881;SDS011;39794;55.782;37.452;2022-11-20T09:24:30;27.52;;;13.50;;
53881;SDS011;39794;55.782;37.452;2022-11-20T09:26:58;30.88;;;13.13;;
53881;SDS011;39794;55.782;37.452;2022-11-20T09:29:31;31.65;;;13.40;;
53881;SDS011;39794;55.782;37.452;2022-11-20T09:31:59;31.30;;;14.25;;
53881;SDS011;39794;55.782;37.452;2022-11-20T09:34:27;29.33;;;13.88;;
53881;SDS011;39794;55.782;37.452;2022-11-20T09:36:56;29.65;;;13.98;;
53881;SDS011;39794;55.782;37.452;2022-11-20T09:39:30;27.90;;;14.40;;
53881;SDS011;39794;55.782;37.452;2022-11-20T09:42:02;28.50;;;12.88;;
53881;SDS011;39794;55.782;37.452;2022-11-20T09:44:51;28.90;;;12.63;;
53881;SDS011;39794;55.782;37.452;2022-11-20T09:47:32;29.58;;;13.63;;
53881;SDS011;39794;55.782;37.452;2022-11-20T09:50:18;28.48;;;13.10;;
53881;SDS011;39794;55.782;37.452;2022-11-20T09:52:59;33.35;;;14.40;;
53881;SDS011;39794;55.782;37.452;2022-11-20T09:55:36;26.02;;;13.85;;
53881;SDS011;39794;55.782;37.452;2022-11-20T09:58:05;26.95;;;13.02;;
53881;SDS011;39794;55.782;37.452;2022-11-20T10:00:36;33.45;;;15.13;;
53881;SDS011;39794;55.782;37.452;2022-11-20T10:03:06;31.42;;;15.15;;
53881;SDS011;39794;55.782;37.452;2022-11-20T10:05:42;29.42;;;14.15;;
53881;SDS011;39794;55.782;37.452;2022-11-20T10:08:14;29.92;;;14.75;;
53881;SDS011;39794;55.782;37.452;2022-11-20T10:10:45;32.90;;;13.88;;
53881;SDS011;39794;55.782;37.452;2022-11-20T10:13:28;27.10;;;12.85;;
53881;SDS011;39794;55.782;37.452;2022-11-20T10:16:09;30.25;;;14.43;;
53881;SDS011;39794;55.782;37.452;2022-11-20T10:18:52;27.20;;;13.00;;
53881;SDS011;39794;55.782;37.452;2022-11-20T10:21:28;25.80;;;11.20;;
53881;SDS011;39794;55.782;37.452;2022-11-20T10:24:06;25.05;;;12.07;;
53881;SDS011;39794;55.782;37.452;2022-11-20T10:26:53;25.38;;;13.02;;
53881;SDS011;39794;55.782;37.452;2022-11-20T10:29:27;27.80;;;12.70;;
53881;SDS011;39794;55.782;37.452;2022-11-20T10:32:01;26.52;;;9.98;;
53881;SDS011;39794;55.782;37.452;2022-11-20T10:34:31;17.60;;;9.98;;
53881;SDS011;39794;55.782;37.452;2022-11-20T10:37:05;26.00;;;12.45;;
53881;SDS011;39794;55.782;37.452;2022-11-20T10:39:38;27.00;;;13.02;;
53881;SDS011;39794;55.782;37.452;2022-11-20T10:42:10;31.23;;;13.32;;
53881;SDS011;39794;55.782;37.452;2022-11-20T10:44:39;23.33;;;10.82;;
53881;SDS011;39794;55.782;37.452;2022-11-20T10:47:35;28.67;;;13.80;;
53881;SDS011;39794;55.782;37.452;2022-11-20T10:50:04;27.60;;;12.90;;
53881;SDS011;39794;55.782;37.452;2022-11-20T10:52:39;23.85;;;11.90;;
53881;SDS011;39794;55.782;37.452;2022-11-20T10:55:12;27.10;;;13.00;;
53881;SDS011;39794;55.782;37.452;2022-11-20T10:57:52;20.65;;;10.00;;
53881;SDS011;39794;55.782;37.452;2022-11-20T11:00:22;25.45;;;12.00;;
53881;SDS011;39794;55.782;37.452;2022-11-20T11:02:52;21.05;;;12.02;;
53881;SDS011;39794;55.782;37.452;2022-11-20T11:05:24;26.27;;;12.20;;
53881;SDS011;39794;55.782;37.452;2022-11-20T11:07:58;24.50;;;12.95;;
53881;SDS011;39794;55.782;37.452;2022-11-20T11:10:28;23.60;;;12.63;;
53881;SDS011;39794;55.782;37.452;2022-11-20T11:13:01;20.23;;;12.15;;
53881;SDS011;39794;55.782;37.452;2022-11-20T11:15:30;24.20;;;12.60;;
53881;SDS011;39794;55.782;37.452;2022-11-20T11:18:07;25.45;;;12.13;;
53881;SDS011;39794;55.782;37.452;2022-11-20T11:20:36;23.73;;;11.50;;
53881;SDS011;39794;55.782;37.452;2022-11-20T11:23:10;16.60;;;8.30;;
53881;SDS011;39794;55.782;37.452;2022-11-20T11:25:56;20.30;;;10.77;;
53881;SDS011;39794;55.782;37.452;2022-11-20T11:28:25;20.13;;;10.75;;
53881;SDS011;39794;55.782;37.452;2022-11-20T11:30:54;17.50;;;9.45;;
53881;SDS011;39794;55.782;37.452;2022-11-20T11:33:25;21.17;;;10.88;;
53881;SDS011;39794;55.782;37.452;2022-11-20T11:35:55;23.67;;;10.15;;
53881;SDS011;39794;55.782;37.452;2022-11-20T11:38:28;15.50;;;8.65;;
53881;SDS011;39794;55.782;37.452;2022-11-20T11:40:57;17.20;;;9.40;;
53881;SDS011;39794;55.782;37.452;2022-11-20T11:43:26;18.45;;;9.68;;
53881;SDS011;39794;55.782;37.452;2022-11-20T11:46:24;13.43;;;8.43;;
53881;SDS011;39794;55.782;37.452;2022-11-20T11:48:58;17.95;;;9.50;;
53881;SDS011;39794;55.782;37.452;2022-11-20T11:51:29;17.95;;;9.82;;
53881;SDS011;39794;55.782;37.452;2022-11-20T11:54:01;16.02;;;9.13;;
53881;SDS011;39794;55.782;37.452;2022-11-20T11:56:32;17.10;;;9.02;;
53881;SDS011;39794;55.782;37.452;2022-11-20T11:59:01;17.45;;;8.70;;
53881;SDS011;39794;55.782;37.452;2022-11-20T12:01:33;18.63;;;9.85;;
53881;SDS011;39794;55.782;37.452;2022-11-20T12:06:39;18.67;;;9.40;;
53881;SDS011;39794;55.782;37.452;2022-11-20T12:09:11;19.58;;;9.13;;
53881;SDS011;39794;55.782;37.452;2022-11-20T12:11:42;17.90;;;10.15;;
53881;SDS011;39794;55.782;37.452;2022-11-20T12:14:14;18.23;;;9.25;;
53881;SDS011;39794;55.782;37.452;2022-11-20T12:17:00;17.73;;;8.15;;
53881;SDS011;39794;55.782;37.452;2022-11-20T12:19:38;19.08;;;9.75;;
53881;SDS011;39794;55.782;37.452;2022-11-20T12:22:12;17.25;;;9.82;;
53881;SDS011;39794;55.782;37.452;2022-11-20T12:24:52;18.50;;;10.30;;
53881;SDS011;39794;55.782;37.452;2022-11-20T12:27:42;17.50;;;9.48;;
53881;SDS011;39794;55.782;37.452;2022-11-20T12:30:16;15.35;;;8.40;;
53881;SDS011;39794;55.782;37.452;2022-11-20T12:35:55;18.42;;;10.00;;
53881;SDS011;39794;55.782;37.452;2022-11-20T12:39:00;18.45;;;9.35;;
53881;SDS011;39794;55.782;37.452;2022-11-20T12:42:01;15.00;;;8.63;;
53881;SDS011;39794;55.782;37.452;2022-11-20T12:48:23;16.90;;;9.10;;
53881;SDS011;39794;55.782;37.452;2022-11-20T12:51:01;18.08;;;9.40;;
53881;SDS011;39794;55.782;37.452;2022-11-20T12:53:55;16.95;;;9.23;;
53881;SDS011;39794;55.782;37.452;2022-11-20T12:56:52;16.20;;;9.57;;
53881;SDS011;39794;55.782;37.452;2022-11-20T12:59:33;12.93;;;8.07;;
53881;SDS011;39794;55.782;37.452;2022-11-20T13:02:13;20.52;;;9.65;;
53881;SDS011;39794;55.782;37.452;2022-11-20T13:04:59;16.30;;;9.18;;
53881;SDS011;39794;55.782;37.452;2022-11-20T13:07:35;17.83;;;9.10;;
53881;SDS011;39794;55.782;37.452;2022-11-20T13:10:04;18.90;;;10.25;;
53881;SDS011;39794;55.782;37.452;2022-11-20T13:12:43;16.98;;;10.00;;
53881;SDS011;39794;55.782;37.452;2022-11-20T13:15:17;18.10;;;10.00;;
53881;SDS011;39794;55.782;37.452;2022-11-20T13:17:51;12.40;;;8.05;;
53881;SDS011;39794;55.782;37.452;2022-11-20T13:20:22;16.55;;;9.20;;
53881;SDS011;39794;55.782;37.452;2022-11-20T13:22:52;18.25;;;10.18;;
53881;SDS011;39794;55.782;37.452;2022-11-20T13:25:24;17.92;;;9.30;;
53881;SDS011;39794;55.782;37.452;2022-11-20T13:27:53;17.40;;;9.40;;
53881;SDS011;39794;55.782;37.452;2022-11-20T13:30:23;17.15;;;8.35;;
53881;SDS011;39794;55.782;37.452;2022-11-20T13:32:52;19.25;;;10.32;;
53881;SDS011;39794;55.782;37.452;2022-11-20T13:35:26;19.17;;;10.43;;
53881;SDS011;39794;55.782;37.452;2022-11-20T13:38:07;17.30;;;9.25;;
53881;SDS011;39794;55.782;37.452;2022-11-20T13:40:37;19.80;;;10.50;;
53881;SDS011;39794;55.782;37.452;2022-11-20T13:43:18;20.33;;;10.63;;
53881;SDS011;39794;55.782;37.452;2022-11-20T13:48:38;20.75;;;10.75;;
53881;SDS011;39794;55.782;37.452;2022-11-20T13:51:13;18.70;;;8.90;;
53881;SDS011;39794;55.782;37.452;2022-11-20T13:53:52;20.77;;;10.95;;
53881;SDS011;39794;55.782;37.452;2022-11-20T13:56:32;20.13;;;10.98;;
53881;SDS011;39794;55.782;37.452;2022-11-20T13:59:06;21.77;;;10.38;;
53881;SDS011;39794;55.782;37.452;2022-11-20T14:01:40;19.20;;;10.60;;
53881;SDS011;39794;55.782;37.452;2022-11-20T14:04:11;19.92;;;10.55;;
53881;SDS011;39794;55.782;37.452;2022-11-20T14:06:43;23.85;;;9.80;;
53881;SDS011;39794;55.782;37.452;2022-11-20T14:09:24;19.42;;;10.75;;
53881;SDS011;39794;55.782;37.452;2022-11-20T14:11:54;19.00;;;10.55;;
53881;SDS011;39794;55.782;37.452;2022-11-20T14:14:23;18.58;;;10.98;;
53881;SDS011;39794;55.782;37.452;2022-11-20T14:16:53;15.85;;;9.95;;
53881;SDS011;39794;55.782;37.452;2022-11-20T14:19:33;18.98;;;9.95;;
53881;SDS011;39794;55.782;37.452;2022-11-20T14:22:08;17.83;;;9.48;;
53881;SDS011;39794;55.782;37.452;2022-11-20T14:24:46;19.15;;;10.57;;
53881;SDS011;39794;55.782;37.452;2022-11-20T14:27:16;21.63;;;11.13;;
53881;SDS011;39794;55.782;37.452;2022-11-20T14:29:46;18.38;;;10.75;;
53881;SDS011;39794;55.782;37.452;2022-11-20T14:32:16;21.02;;;10.13;;
53881;SDS011;39794;55.782;37.452;2022-11-20T14:34:46;18.10;;;10.43;;
53881;SDS011;39794;55.782;37.452;2022-11-20T14:37:17;18.88;;;10.52;;
53881;SDS011;39794;55.782;37.452;2022-11-20T14:39:50;18.08;;;10.30;;
53881;SDS011;39794;55.782;37.452;2022-11-20T14:42:20;21.05;;;10.88;;
53881;SDS011;39794;55.782;37.452;2022-11-20T14:44:50;15.23;;;10.00;;
53881;SDS011;39794;55.782;37.452;2022-11-20T14:47:20;18.60;;;10.30;;
53881;SDS011;39794;55.782;37.452;2022-11-20T14:49:49;17.92;;;9.27;;
53881;SDS011;39794;55.782;37.452;2022-11-20T14:52:20;16.58;;;8.88;;
53881;SDS011;39794;55.782;37.452;2022-11-20T14:54:51;16.30;;;9.30;;
53881;SDS011;39794;55.782;37.452;2022-11-20T14:57:21;19.60;;;10.45;;
53881;SDS011;39794;55.782;37.452;2022-11-20T15:00:02;19.23;;;10.85;;